Flight Track Log - Related Links

Times and Time Zones

All times are in EDT time to prevent confusion due to time zone crossing. See the N53NW flight status page for this flight to view local times or setup timezone preferences in your user account.

Time Position Orientation Groundspeed Altitude Reporting Facility
EDT Latitude Longitude Course Direction KTS MPH feet Rate Location/Type
Fri 09:39:29 AM 34.3025 -85.1728 197° South 402 463 3,500  Level Atlanta Center
Fri 09:40:29 AM 34.2500 -85.1922 197° South 320 368 5,900 2,450 Climbing Atlanta Center
Fri 09:41:29 AM 34.1894 -85.2117 195° South 251 289 8,400 2,600 Climbing Atlanta Center
Fri 09:42:29 AM 34.1222 -85.2408 200° South 243 280 11,100 2,650 Climbing Atlanta Center
Fri 09:43:29 AM 34.0572 -85.2725 202° Southwest 250 288 13,700 2,600 Climbing Atlanta Center
Fri 09:44:29 AM 33.9922 -85.3042 202° Southwest 256 295 16,300 2,350 Climbing Atlanta Center
Fri 09:45:29 AM 33.9294 -85.3281 198° South 251 289 18,400 2,100 Climbing Atlanta Center
Fri 09:46:29 AM 33.8717 -85.2772 144° Southeast 234 269 20,500 2,050 Climbing Atlanta Center
Fri 09:47:29 AM 33.8222 -85.2067 130° Southeast 258 297 22,500 1,950 Climbing Atlanta Center
Fri 09:48:29 AM 33.7728 -85.1333 129° Southeast 277 319 24,400 1,750 Climbing Atlanta Center
Fri 09:49:29 AM 33.7192 -85.0528 129° Southeast 282 325 26,000 1,600 Climbing Atlanta Center
Fri 09:50:29 AM 33.6675 -84.9797 130° Southeast 282 325 27,600 1,500 Climbing Atlanta Center
Fri 09:51:29 AM 33.6158 -84.9044 129° Southeast 282 325 29,000 700 Climbing Atlanta Center
Fri 09:52:29 AM 33.5581 -84.8192 129° Southeast 304 350 29,000  Level Atlanta Center
Fri 09:53:29 AM 33.4939 -84.7239 129° Southeast 344 396 29,000  Level Atlanta Center
Fri 09:54:29 AM 33.4275 -84.6239 128° Southeast 375 432 29,000  Level Atlanta Center
Fri 09:55:29 AM 33.3611 -84.5264 129° Southeast 380 437 29,000  Level Atlanta Center
Fri 09:56:29 AM 33.2947 -84.4264 128° Southeast 380 437 29,000  Level Atlanta Center
Fri 09:57:29 AM 33.2283 -84.3269 129° Southeast 380 437 29,000  Level Atlanta Center
Fri 09:58:29 AM 33.1617 -84.2300 129° Southeast 380 437 29,000  Level Atlanta Center
Fri 09:59:29 AM 33.0928 -84.1281 129° Southeast 387 445 29,000  Level Atlanta Center
Fri 10:00:29 AM 33.0261 -84.0289 129° Southeast 387 445 29,000  Level Atlanta Center
Fri 10:01:29 AM 32.9572 -83.9347 131° Southeast 387 445 29,000  Level Atlanta Center
Fri 10:02:29 AM 32.8881 -83.8336 129° Southeast 387 445 29,000  Level Atlanta Center
Fri 10:03:29 AM 32.8233 -83.7372 129° Southeast 381 438 29,000  Level Atlanta Center
Fri 10:04:29 AM 32.7561 -83.6361 128° Southeast 386 444 29,000  Level Atlanta Center
Fri 10:05:29 AM 32.6847 -83.5378 131° Southeast 386 444 29,000  Level Atlanta Center
Fri 10:06:29 AM 32.6175 -83.4419 130° Southeast 386 444 29,000  Level Atlanta Center
Fri 10:07:29 AM 32.5481 -83.3389 129° Southeast 386 444 29,000 -623 Level Atlanta Center
Fri 10:09:03 AM 32.4481 -83.1928 129° Southeast 399 459 27,400 -1,208 Descending Jacksonville Center
Fri 10:10:03 AM 32.3836 -83.1017 130° Southeast 386 444 25,900 -1,400 Descending Jacksonville Center
Fri 10:11:03 AM 32.3189 -83.0131 131° Southeast 363 418 24,600 -1,400 Descending Jacksonville Center
Fri 10:12:03 AM 32.2583 -82.9244 129° Southeast 352 405 23,100 -1,450 Descending Jacksonville Center
Fri 10:13:03 AM 32.1978 -82.8411 131° Southeast 352 405 21,700 -1,050 Descending Jacksonville Center
Fri 10:14:03 AM 32.1372 -82.7600 131° Southeast 341 392 21,000 -350 Descending Jacksonville Center
Fri 10:15:03 AM 32.0703 -82.6892 138° Southeast 328 377 21,000  Level Jacksonville Center
Fri 10:16:03 AM 32.0075 -82.6181 136° Southeast 322 371 21,000  Level Jacksonville Center
Fri 10:17:03 AM 31.9428 -82.5475 137° Southeast 317 365 21,000 -400 Level Jacksonville Center
Fri 10:18:03 AM 31.8756 -82.4742 137° Southeast 317 365 20,200 -1,300 Descending Jacksonville Center
Fri 10:19:03 AM 31.8086 -82.4011 137° Southeast 322 371 18,400 -1,700 Descending Jacksonville Center
Fri 10:20:03 AM 31.7353 -82.3453 147° Southeast 317 365 16,800 -1,700 Descending Jacksonville Center
Fri 10:21:03 AM 31.6517 -82.3189 165° South 309 356 15,000 -1,800 Descending Jacksonville Center
Fri 10:22:03 AM 31.5700 -82.2953 166° South 304 350 13,200 -1,800 Descending Jacksonville Center
Fri 10:23:03 AM 31.4928 -82.2714 165° South 297 342 11,400 -1,900 Descending Jacksonville Center
Fri 10:24:03 AM 31.4133 -82.2378 160° South 283 326 9,400 -1,850 Descending Jacksonville Center
Fri 10:25:03 AM 31.3731 -82.1697 125° Southeast 274 315 7,700 -1,700 Descending Jacksonville Center
Fri 10:26:03 AM 31.3331 -82.0997 124° Southeast 273 314 6,000 -1,400 Descending Jacksonville Center
Fri 10:27:03 AM 31.3014 -82.0319 119° Southeast 252 290 4,900 -1,050 Descending Jacksonville Center
Fri 10:28:03 AM 31.2653 -81.9617 121° Southeast 232 267 3,900 -1,450 Descending Jacksonville Center
Fri 10:29:03 AM 31.2336 -81.9061 124° Southeast 237 273 2,000 -950 Descending Jacksonville Center
Fri 10:30:03 AM 31.2017 -81.8458 122° Southeast 221 254 2,000 -50 Level Jacksonville Center
Fri 10:31:03 AM 31.1614 -81.7758 124° Southeast 226 260 1,900 -50 Descending Jacksonville Center
Fri 10:32:03 AM 31.1297 -81.7156 122° Southeast 226 260 1,900  Level Jacksonville Center
Fri 10:33:03 AM 31.0956 -81.6553 123° Southeast 226 260 1,900  Level Jacksonville Center
Fri 10:34:03 AM 31.0639 -81.6022 125° Southeast 226 260 1,900  Level Jacksonville Center
Fri 10:35:03 AM 31.0278 -81.5422 125° Southeast 226 260 1,900  Level Jacksonville Center

Login

Don't have an account? Register now (free) for customized features, flight alerts, and more!